Port Imperial New Jersey — WBR3133 — position and weather

sailwx.info

Track history (hours):
 
Tides and Currents Weather Stations Pressure Air Temp Water Temp Dewpoint Dewpoint Depression Visibility Wind Speed Wind Dir Waves Ship Positions

Port Imperial New Jersey

Owner: PORT IMPERIAL FERRY CORP, WEEHAWKEN, NJ. More information available from US FCC via Universal Licensing System and Coast Guard Vessel Documentation Center.

Last reported at 2016-Feb-08 15:23 UTC. Time now 2016-Feb-08 19:05 UTC.
Position N 40°47' W 074°00'.

Length 31 m.

Type: Passenger vessel. MMSI: 366990550.

Date/timePositionNaut miles runAvg speedWind from/ knotsBaromVisibWave heightAir tempDewpointWater temp
2016-Feb-08 15:23N 40°47' W 074°00'1 1.5
2016-Feb-08 14:34N 40°45' W 074°01'0 0.0
2016-Feb-08 13:33N 40°46' W 074°01'0 0.3
2016-Feb-08 12:34N 40°45' W 074°01'  
2016-Feb-05 15:21N 40°46' W 074°01'1 1.2
2016-Feb-05 14:33N 40°45' W 074°01'0 0.0
2016-Feb-05 13:33N 40°45' W 074°01'0 0.3
2016-Feb-05 12:33N 40°45' W 074°01'1 0.0
2016-Feb-04 15:19N 40°46' W 074°01'1 1.2
2016-Feb-04 14:34N 40°45' W 074°01'0 0.0
2016-Feb-04 13:34N 40°45' W 074°01'0 0.2
2016-Feb-04 12:34N 40°45' W 074°01'1 0.1
2016-Feb-03 15:29N 40°47' W 074°00'3 2.9
2016-Feb-03 14:33N 40°44' W 074°01'0 0.3
2016-Feb-03 13:33N 40°44' W 074°01'0 0.1
2016-Feb-03 12:33N 40°44' W 074°01'0 0.0
2016-Feb-03 11:33N 40°44' W 074°01'3 2.0
2016-Feb-03 10:08N 40°47' W 074°01'0 0.0
2016-Feb-02 14:33N 40°46' W 074°00'0 0.1
2016-Feb-02 13:33N 40°46' W 074°00'0 0.0
2016-Feb-02 12:33N 40°46' W 074°00'0 0.3
2016-Feb-02 11:33N 40°46' W 074°00'  
Track history (hours):
 
Tides and Currents Weather Stations Pressure Air Temp Water Temp Dewpoint Dewpoint Depression Visibility Wind Speed Wind Dir Waves Ship Positions

Port Imperial New Jersey

Owner: PORT IMPERIAL FERRY CORP, WEEHAWKEN, NJ. More information available from US FCC via Universal Licensing System and Coast Guard Vessel Documentation Center.

Last reported at 2016-Feb-08 15:23 UTC. Time now 2016-Feb-08 19:05 UTC.
Position N 40°47' W 074°00'.

Length 31 m.

Type: Passenger vessel. MMSI: 366990550.

Date/timePositionNaut miles runAvg speedWind from/ knotsBaromVisibWave heightAir tempDewpointWater temp
2016-Feb-08 15:23N 40°47' W 074°00'1 1.5
2016-Feb-08 14:34N 40°45' W 074°01'0 0.0
2016-Feb-08 13:33N 40°46' W 074°01'0 0.3
2016-Feb-08 12:34N 40°45' W 074°01'  
2016-Feb-05 15:21N 40°46' W 074°01'1 1.2
2016-Feb-05 14:33N 40°45' W 074°01'0 0.0
2016-Feb-05 13:33N 40°45' W 074°01'0 0.3
2016-Feb-05 12:33N 40°45' W 074°01'1 0.0
2016-Feb-04 15:19N 40°46' W 074°01'1 1.2
2016-Feb-04 14:34N 40°45' W 074°01'0 0.0
2016-Feb-04 13:34N 40°45' W 074°01'0 0.2
2016-Feb-04 12:34N 40°45' W 074°01'1 0.1
2016-Feb-03 15:29N 40°47' W 074°00'3 2.9
2016-Feb-03 14:33N 40°44' W 074°01'0 0.3
2016-Feb-03 13:33N 40°44' W 074°01'0 0.1
2016-Feb-03 12:33N 40°44' W 074°01'0 0.0
2016-Feb-03 11:33N 40°44' W 074°01'3 2.0
2016-Feb-03 10:08N 40°47' W 074°01'0 0.0
2016-Feb-02 14:33N 40°46' W 074°00'0 0.1
2016-Feb-02 13:33N 40°46' W 074°00'0 0.0
2016-Feb-02 12:33N 40°46' W 074°00'0 0.3
2016-Feb-02 11:33N 40°46' W 074°00'  

Dump ship's entire track history